sensor_id;sensor_type;location;lat;lon;timestamp;temperature;humidity
31038;DHT22;17702;47.590;7.666;2023-02-15T00:01:13;2.40;99.90
31038;DHT22;17702;47.590;7.666;2023-02-15T00:03:39;2.40;99.90
31038;DHT22;17702;47.590;7.666;2023-02-15T00:06:04;2.40;99.90
31038;DHT22;17702;47.590;7.666;2023-02-15T00:08:30;2.40;99.90
31038;DHT22;17702;47.590;7.666;2023-02-15T00:11:11;2.60;99.90
31038;DHT22;17702;47.590;7.666;2023-02-15T00:13:38;2.70;99.90
31038;DHT22;17702;47.590;7.666;2023-02-15T00:16:07;2.80;99.90
31038;DHT22;17702;47.590;7.666;2023-02-15T00:18:32;2.70;99.90
31038;DHT22;17702;47.590;7.666;2023-02-15T00:20:58;2.60;99.90
31038;DHT22;17702;47.590;7.666;2023-02-15T00:23:27;2.40;99.90
31038;DHT22;17702;47.590;7.666;2023-02-15T00:26:02;2.20;99.90
31038;DHT22;17702;47.590;7.666;2023-02-15T00:28:27;2.20;99.90
31038;DHT22;17702;47.590;7.666;2023-02-15T00:30:53;2.30;99.90
31038;DHT22;17702;47.590;7.666;2023-02-15T00:33:18;2.30;99.90
31038;DHT22;17702;47.590;7.666;2023-02-15T00:35:44;2.20;99.90
31038;DHT22;17702;47.590;7.666;2023-02-15T00:38:09;2.40;99.90
31038;DHT22;17702;47.590;7.666;2023-02-15T00:40:35;2.40;99.90
31038;DHT22;17702;47.590;7.666;2023-02-15T00:43:00;2.30;99.90
31038;DHT22;17702;47.590;7.666;2023-02-15T00:45:26;2.30;99.90
31038;DHT22;17702;47.590;7.666;2023-02-15T00:47:51;2.20;99.90
31038;DHT22;17702;47.590;7.666;2023-02-15T00:50:17;2.10;99.90
31038;DHT22;17702;47.590;7.666;2023-02-15T00:52:42;2.10;99.90
31038;DHT22;17702;47.590;7.666;2023-02-15T00:55:08;2.20;99.90
31038;DHT22;17702;47.590;7.666;2023-02-15T00:59:58;2.10;99.90
31038;DHT22;17702;47.590;7.666;2023-02-15T01:02:24;2.10;99.90
31038;DHT22;17702;47.590;7.666;2023-02-15T01:04:49;2.10;99.90
31038;DHT22;17702;47.590;7.666;2023-02-15T01:07:15;2.00;99.90
31038;DHT22;17702;47.590;7.666;2023-02-15T01:09:40;2.00;99.90
31038;DHT22;17702;47.590;7.666;2023-02-15T01:12:06;2.00;99.90
31038;DHT22;17702;47.590;7.666;2023-02-15T01:14:31;1.90;99.90
31038;DHT22;17702;47.590;7.666;2023-02-15T01:16:57;1.90;99.90
31038;DHT22;17702;47.590;7.666;2023-02-15T01:19:22;1.80;99.90
31038;DHT22;17702;47.590;7.666;2023-02-15T01:21:48;1.80;99.90
31038;DHT22;17702;47.590;7.666;2023-02-15T01:24:13;1.80;99.90
31038;DHT22;17702;47.590;7.666;2023-02-15T01:26:39;1.70;99.90
31038;DHT22;17702;47.590;7.666;2023-02-15T01:29:04;1.60;99.90
31038;DHT22;17702;47.590;7.666;2023-02-15T01:31:30;1.70;99.90
31038;DHT22;17702;47.590;7.666;2023-02-15T01:33:56;1.70;99.90
31038;DHT22;17702;47.590;7.666;2023-02-15T01:36:21;2.00;99.90
31038;DHT22;17702;47.590;7.666;2023-02-15T01:38:46;2.20;99.90
31038;DHT22;17702;47.590;7.666;2023-02-15T01:41:12;2.30;99.90
31038;DHT22;17702;47.590;7.666;2023-02-15T01:44:01;2.40;99.90
31038;DHT22;17702;47.590;7.666;2023-02-15T01:48:54;2.40;99.90
31038;DHT22;17702;47.590;7.666;2023-02-15T01:51:22;2.40;99.90
31038;DHT22;17702;47.590;7.666;2023-02-15T01:53:53;2.20;99.90
31038;DHT22;17702;47.590;7.666;2023-02-15T01:56:25;2.10;99.90
31038;DHT22;17702;47.590;7.666;2023-02-15T01:58:52;2.00;99.90
31038;DHT22;17702;47.590;7.666;2023-02-15T02:01:19;2.00;99.90
31038;DHT22;17702;47.590;7.666;2023-02-15T02:06:13;1.90;99.90
31038;DHT22;17702;47.590;7.666;2023-02-15T02:08:38;1.90;99.90
31038;DHT22;17702;47.590;7.666;2023-02-15T02:11:09;2.00;99.90
31038;DHT22;17702;47.590;7.666;2023-02-15T02:13:34;1.90;99.90
31038;DHT22;17702;47.590;7.666;2023-02-15T02:16:01;1.80;99.90
31038;DHT22;17702;47.590;7.666;2023-02-15T02:18:35;1.70;99.90
31038;DHT22;17702;47.590;7.666;2023-02-15T02:21:10;1.60;99.90
31038;DHT22;17702;47.590;7.666;2023-02-15T02:24:01;1.50;99.90
31038;DHT22;17702;47.590;7.666;2023-02-15T02:42:02;1.40;99.90
31038;DHT22;17702;47.590;7.666;2023-02-15T02:46:59;1.50;99.90
31038;DHT22;17702;47.590;7.666;2023-02-15T02:49:44;1.40;99.90
31038;DHT22;17702;47.590;7.666;2023-02-15T02:54:54;1.40;99.90
31038;DHT22;17702;47.590;7.666;2023-02-15T02:57:20;1.30;99.90
31038;DHT22;17702;47.590;7.666;2023-02-15T02:59:48;1.10;99.90
31038;DHT22;17702;47.590;7.666;2023-02-15T03:02:36;1.10;99.90
31038;DHT22;17702;47.590;7.666;2023-02-15T03:05:02;1.30;99.90
31038;DHT22;17702;47.590;7.666;2023-02-15T03:07:29;1.40;99.90
31038;DHT22;17702;47.590;7.666;2023-02-15T03:09:57;1.40;99.90
31038;DHT22;17702;47.590;7.666;2023-02-15T03:12:32;1.30;99.90
31038;DHT22;17702;47.590;7.666;2023-02-15T03:15:03;1.30;99.90
31038;DHT22;17702;47.590;7.666;2023-02-15T03:17:31;1.30;99.90
31038;DHT22;17702;47.590;7.666;2023-02-15T03:19:57;1.40;99.90
31038;DHT22;17702;47.590;7.666;2023-02-15T03:22:36;1.40;99.90
31038;DHT22;17702;47.590;7.666;2023-02-15T03:27:33;1.30;99.90
31038;DHT22;17702;47.590;7.666;2023-02-15T03:29:59;1.30;99.90
31038;DHT22;17702;47.590;7.666;2023-02-15T03:32:27;1.30;99.90
31038;DHT22;17702;47.590;7.666;2023-02-15T03:34:53;1.10;99.90
31038;DHT22;17702;47.590;7.666;2023-02-15T03:39:47;1.20;99.90
31038;DHT22;17702;47.590;7.666;2023-02-15T03:42:17;1.20;99.90
31038;DHT22;17702;47.590;7.666;2023-02-15T03:44:58;1.40;99.90
31038;DHT22;17702;47.590;7.666;2023-02-15T03:47:26;1.50;99.90
31038;DHT22;17702;47.590;7.666;2023-02-15T03:49:55;1.60;99.90
31038;DHT22;17702;47.590;7.666;2023-02-15T03:52:23;1.70;99.90
31038;DHT22;17702;47.590;7.666;2023-02-15T03:54:50;1.80;99.90
31038;DHT22;17702;47.590;7.666;2023-02-15T03:57:20;1.80;99.90
31038;DHT22;17702;47.590;7.666;2023-02-15T04:00:09;1.80;99.90
31038;DHT22;17702;47.590;7.666;2023-02-15T04:05:23;1.90;99.90
31038;DHT22;17702;47.590;7.666;2023-02-15T04:07:49;1.80;99.90
31038;DHT22;17702;47.590;7.666;2023-02-15T04:10:14;1.80;99.90
31038;DHT22;17702;47.590;7.666;2023-02-15T04:12:58;1.90;99.90
31038;DHT22;17702;47.590;7.666;2023-02-15T04:15:24;2.00;99.90
31038;DHT22;17702;47.590;7.666;2023-02-15T04:18:08;2.00;99.90
31038;DHT22;17702;47.590;7.666;2023-02-15T04:20:34;2.10;99.90
31038;DHT22;17702;47.590;7.666;2023-02-15T04:23:18;2.00;99.90
31038;DHT22;17702;47.590;7.666;2023-02-15T04:26:03;1.90;99.90
31038;DHT22;17702;47.590;7.666;2023-02-15T04:28:30;1.90;99.90
31038;DHT22;17702;47.590;7.666;2023-02-15T04:30:55;2.00;99.90
31038;DHT22;17702;47.590;7.666;2023-02-15T04:33:21;2.00;99.90
31038;DHT22;17702;47.590;7.666;2023-02-15T04:35:46;1.90;99.90
31038;DHT22;17702;47.590;7.666;2023-02-15T04:38:12;1.90;99.90
31038;DHT22;17702;47.590;7.666;2023-02-15T04:40:37;2.00;99.90
31038;DHT22;17702;47.590;7.666;2023-02-15T04:43:03;1.90;99.90
31038;DHT22;17702;47.590;7.666;2023-02-15T04:45:28;2.00;99.90
31038;DHT22;17702;47.590;7.666;2023-02-15T04:47:54;2.00;99.90
31038;DHT22;17702;47.590;7.666;2023-02-15T04:50:19;1.90;99.90
31038;DHT22;17702;47.590;7.666;2023-02-15T04:52:44;2.00;99.90
31038;DHT22;17702;47.590;7.666;2023-02-15T04:55:10;1.90;99.90
31038;DHT22;17702;47.590;7.666;2023-02-15T04:57:36;2.00;99.90
31038;DHT22;17702;47.590;7.666;2023-02-15T05:00:01;2.10;99.90
31038;DHT22;17702;47.590;7.666;2023-02-15T05:02:27;2.20;99.90
31038;DHT22;17702;47.590;7.666;2023-02-15T05:04:52;2.40;99.90
31038;DHT22;17702;47.590;7.666;2023-02-15T05:07:18;2.30;99.90
31038;DHT22;17702;47.590;7.666;2023-02-15T05:09:45;2.50;99.90
31038;DHT22;17702;47.590;7.666;2023-02-15T05:12:11;2.50;99.90
31038;DHT22;17702;47.590;7.666;2023-02-15T05:14:36;2.40;99.90
31038;DHT22;17702;47.590;7.666;2023-02-15T05:17:02;2.40;99.90
31038;DHT22;17702;47.590;7.666;2023-02-15T05:19:28;2.40;99.90
31038;DHT22;17702;47.590;7.666;2023-02-15T05:21:53;2.40;99.90
31038;DHT22;17702;47.590;7.666;2023-02-15T05:24:19;2.50;99.90
31038;DHT22;17702;47.590;7.666;2023-02-15T05:27:03;2.50;99.90
31038;DHT22;17702;47.590;7.666;2023-02-15T05:29:47;2.60;99.90
31038;DHT22;17702;47.590;7.666;2023-02-15T05:32:13;2.60;99.90
31038;DHT22;17702;47.590;7.666;2023-02-15T05:34:39;2.50;99.90
31038;DHT22;17702;47.590;7.666;2023-02-15T05:37:05;2.40;99.90
31038;DHT22;17702;47.590;7.666;2023-02-15T05:39:30;2.60;99.90
31038;DHT22;17702;47.590;7.666;2023-02-15T05:41:58;2.60;99.90
31038;DHT22;17702;47.590;7.666;2023-02-15T05:44:24;2.50;99.90
31038;DHT22;17702;47.590;7.666;2023-02-15T05:46:49;2.50;99.90
31038;DHT22;17702;47.590;7.666;2023-02-15T05:49:15;2.50;99.90
31038;DHT22;17702;47.590;7.666;2023-02-15T05:51:40;2.40;99.90
31038;DHT22;17702;47.590;7.666;2023-02-15T05:54:06;2.40;99.90
31038;DHT22;17702;47.590;7.666;2023-02-15T05:56:31;2.40;99.90
31038;DHT22;17702;47.590;7.666;2023-02-15T05:58:57;2.30;99.90
31038;DHT22;17702;47.590;7.666;2023-02-15T06:01:22;2.20;99.90
31038;DHT22;17702;47.590;7.666;2023-02-15T06:03:48;2.30;99.90
31038;DHT22;17702;47.590;7.666;2023-02-15T06:06:14;2.40;99.90
31038;DHT22;17702;47.590;7.666;2023-02-15T06:08:39;2.40;99.90
31038;DHT22;17702;47.590;7.666;2023-02-15T06:11:05;2.40;99.90
31038;DHT22;17702;47.590;7.666;2023-02-15T06:13:31;2.40;99.90
31038;DHT22;17702;47.590;7.666;2023-02-15T06:15:57;2.50;99.90
31038;DHT22;17702;47.590;7.666;2023-02-15T06:18:23;2.50;99.90
31038;DHT22;17702;47.590;7.666;2023-02-15T06:20:48;2.50;99.90
31038;DHT22;17702;47.590;7.666;2023-02-15T06:23:14;2.60;99.90
31038;DHT22;17702;47.590;7.666;2023-02-15T06:25:40;2.60;99.90
31038;DHT22;17702;47.590;7.666;2023-02-15T06:28:05;2.50;99.90
31038;DHT22;17702;47.590;7.666;2023-02-15T06:30:31;2.60;99.90
31038;DHT22;17702;47.590;7.666;2023-02-15T06:32:56;2.70;99.90
31038;DHT22;17702;47.590;7.666;2023-02-15T06:35:22;2.70;99.90
31038;DHT22;17702;47.590;7.666;2023-02-15T06:37:48;2.70;99.90
31038;DHT22;17702;47.590;7.666;2023-02-15T06:40:14;2.60;99.90
31038;DHT22;17702;47.590;7.666;2023-02-15T06:42:39;2.70;99.90
31038;DHT22;17702;47.590;7.666;2023-02-15T06:45:06;2.70;99.90
31038;DHT22;17702;47.590;7.666;2023-02-15T06:47:31;2.60;99.90
31038;DHT22;17702;47.590;7.666;2023-02-15T06:49:57;2.50;99.90
31038;DHT22;17702;47.590;7.666;2023-02-15T06:52:23;2.50;99.90
31038;DHT22;17702;47.590;7.666;2023-02-15T06:54:48;2.60;99.90
31038;DHT22;17702;47.590;7.666;2023-02-15T06:57:13;2.50;99.90
31038;DHT22;17702;47.590;7.666;2023-02-15T06:59:39;2.60;99.90
31038;DHT22;17702;47.590;7.666;2023-02-15T07:02:05;2.70;99.90
31038;DHT22;17702;47.590;7.666;2023-02-15T07:04:30;2.70;99.90
31038;DHT22;17702;47.590;7.666;2023-02-15T07:06:56;2.80;99.90
31038;DHT22;17702;47.590;7.666;2023-02-15T07:09:21;2.80;99.90
31038;DHT22;17702;47.590;7.666;2023-02-15T07:11:47;2.80;99.90
31038;DHT22;17702;47.590;7.666;2023-02-15T07:14:31;2.90;99.90
31038;DHT22;17702;47.590;7.666;2023-02-15T07:16:57;2.90;99.90
31038;DHT22;17702;47.590;7.666;2023-02-15T07:19:22;2.90;99.90
31038;DHT22;17702;47.590;7.666;2023-02-15T07:21:48;2.80;99.90
31038;DHT22;17702;47.590;7.666;2023-02-15T07:24:13;2.80;99.90
31038;DHT22;17702;47.590;7.666;2023-02-15T07:26:39;2.80;99.90
31038;DHT22;17702;47.590;7.666;2023-02-15T07:29:04;2.80;99.90
31038;DHT22;17702;47.590;7.666;2023-02-15T07:31:30;2.90;99.90
31038;DHT22;17702;47.590;7.666;2023-02-15T07:33:56;3.00;99.90
31038;DHT22;17702;47.590;7.666;2023-02-15T07:36:21;3.00;99.90
31038;DHT22;17702;47.590;7.666;2023-02-15T07:38:47;3.90;99.90
31038;DHT22;17702;47.590;7.666;2023-02-15T07:41:13;6.40;99.90
31038;DHT22;17702;47.590;7.666;2023-02-15T07:43:40;7.80;85.00
31038;DHT22;17702;47.590;7.666;2023-02-15T07:46:07;6.80;87.70
31038;DHT22;17702;47.590;7.666;2023-02-15T07:48:33;6.30;92.80
31038;DHT22;17702;47.590;7.666;2023-02-15T07:50:59;5.70;92.80
31038;DHT22;17702;47.590;7.666;2023-02-15T07:53:24;5.20;94.60
31038;DHT22;17702;47.590;7.666;2023-02-15T07:55:50;4.80;96.70
31038;DHT22;17702;47.590;7.666;2023-02-15T07:58:15;4.70;98.30
31038;DHT22;17702;47.590;7.666;2023-02-15T08:00:41;4.60;97.50
31038;DHT22;17702;47.590;7.666;2023-02-15T08:03:24;4.50;98.20
31038;DHT22;17702;47.590;7.666;2023-02-15T08:05:55;4.40;98.80
31038;DHT22;17702;47.590;7.666;2023-02-15T08:08:20;4.40;99.20
31038;DHT22;17702;47.590;7.666;2023-02-15T08:13:42;4.40;99.20
31038;DHT22;17702;47.590;7.666;2023-02-15T08:16:40;4.40;99.70
31038;DHT22;17702;47.590;7.666;2023-02-15T08:19:06;4.50;99.60
31038;DHT22;17702;47.590;7.666;2023-02-15T08:21:32;4.60;99.20
31038;DHT22;17702;47.590;7.666;2023-02-15T08:23:58;4.70;98.80
31038;DHT22;17702;47.590;7.666;2023-02-15T08:26:24;4.80;98.10
31038;DHT22;17702;47.590;7.666;2023-02-15T08:28:50;4.80;98.40
31038;DHT22;17702;47.590;7.666;2023-02-15T08:31:16;5.00;98.10
31038;DHT22;17702;47.590;7.666;2023-02-15T08:33:42;5.10;97.50
31038;DHT22;17702;47.590;7.666;2023-02-15T08:36:09;5.20;97.00
31038;DHT22;17702;47.590;7.666;2023-02-15T08:38:35;5.20;96.70
31038;DHT22;17702;47.590;7.666;2023-02-15T08:41:20;5.40;97.20
31038;DHT22;17702;47.590;7.666;2023-02-15T08:43:46;5.50;96.50
31038;DHT22;17702;47.590;7.666;2023-02-15T08:46:12;5.60;96.30
31038;DHT22;17702;47.590;7.666;2023-02-15T08:48:39;5.70;96.30
31038;DHT22;17702;47.590;7.666;2023-02-15T08:51:05;5.80;96.00
31038;DHT22;17702;47.590;7.666;2023-02-15T08:53:32;6.00;96.20
31038;DHT22;17702;47.590;7.666;2023-02-15T08:55:57;6.10;95.20
31038;DHT22;17702;47.590;7.666;2023-02-15T08:58:23;6.30;95.20
31038;DHT22;17702;47.590;7.666;2023-02-15T09:00:49;6.70;95.60
31038;DHT22;17702;47.590;7.666;2023-02-15T09:03:14;7.40;93.10
31038;DHT22;17702;47.590;7.666;2023-02-15T09:05:40;7.70;91.60
31038;DHT22;17702;47.590;7.666;2023-02-15T09:08:05;8.40;88.00
31038;DHT22;17702;47.590;7.666;2023-02-15T09:10:31;8.50;86.70
31038;DHT22;17702;47.590;7.666;2023-02-15T09:12:56;8.20;86.70
31038;DHT22;17702;47.590;7.666;2023-02-15T09:15:22;8.00;87.70
31038;DHT22;17702;47.590;7.666;2023-02-15T09:17:47;8.20;88.00
31038;DHT22;17702;47.590;7.666;2023-02-15T09:20:13;8.10;86.10
31038;DHT22;17702;47.590;7.666;2023-02-15T09:22:38;7.90;87.40
31038;DHT22;17702;47.590;7.666;2023-02-15T09:25:04;8.10;87.70
31038;DHT22;17702;47.590;7.666;2023-02-15T09:27:29;8.40;85.70
31038;DHT22;17702;47.590;7.666;2023-02-15T09:29:55;8.50;86.20
31038;DHT22;17702;47.590;7.666;2023-02-15T09:32:20;8.60;83.90
31038;DHT22;17702;47.590;7.666;2023-02-15T09:34:47;8.50;82.20
31038;DHT22;17702;47.590;7.666;2023-02-15T09:37:13;8.60;84.50
31038;DHT22;17702;47.590;7.666;2023-02-15T09:39:39;8.50;82.80
31038;DHT22;17702;47.590;7.666;2023-02-15T09:49:55;8.70;83.60
31038;DHT22;17702;47.590;7.666;2023-02-15T10:00:30;9.20;79.90
31038;DHT22;17702;47.590;7.666;2023-02-15T10:08:20;9.60;77.80
31038;DHT22;17702;47.590;7.666;2023-02-15T10:23:44;11.10;68.80
31038;DHT22;17702;47.590;7.666;2023-02-15T10:26:18;11.30;68.30
31038;DHT22;17702;47.590;7.666;2023-02-15T10:28:50;11.60;66.70
31038;DHT22;17702;47.590;7.666;2023-02-15T10:36:30;11.60;65.80
31038;DHT22;17702;47.590;7.666;2023-02-15T10:57:25;12.10;64.30
31038;DHT22;17702;47.590;7.666;2023-02-15T11:02:53;12.10;62.50
31038;DHT22;17702;47.590;7.666;2023-02-15T11:05:34;12.00;61.70
31038;DHT22;17702;47.590;7.666;2023-02-15T11:08:02;12.00;62.80
31038;DHT22;17702;47.590;7.666;2023-02-15T11:12:55;12.30;62.30
31038;DHT22;17702;47.590;7.666;2023-02-15T11:17:58;12.30;60.60
31038;DHT22;17702;47.590;7.666;2023-02-15T11:20:33;12.40;62.20
31038;DHT22;17702;47.590;7.666;2023-02-15T11:23:00;12.20;60.90
31038;DHT22;17702;47.590;7.666;2023-02-15T11:25:30;12.20;62.80
31038;DHT22;17702;47.590;7.666;2023-02-15T11:27:56;12.20;61.30
31038;DHT22;17702;47.590;7.666;2023-02-15T11:30:23;12.10;61.10
31038;DHT22;17702;47.590;7.666;2023-02-15T11:32:50;12.00;61.10
31038;DHT22;17702;47.590;7.666;2023-02-15T11:35:22;12.00;61.70
31038;DHT22;17702;47.590;7.666;2023-02-15T11:38:04;12.10;62.10
31038;DHT22;17702;47.590;7.666;2023-02-15T11:40:32;12.10;61.20
31038;DHT22;17702;47.590;7.666;2023-02-15T11:43:13;12.30;60.00
31038;DHT22;17702;47.590;7.666;2023-02-15T11:45:42;12.40;61.30
31038;DHT22;17702;47.590;7.666;2023-02-15T11:48:10;12.50;60.00
31038;DHT22;17702;47.590;7.666;2023-02-15T11:50:36;12.50;61.00
31038;DHT22;17702;47.590;7.666;2023-02-15T11:53:04;12.60;60.60
31038;DHT22;17702;47.590;7.666;2023-02-15T11:55:30;12.50;60.50
31038;DHT22;17702;47.590;7.666;2023-02-15T11:57:59;12.60;61.80
31038;DHT22;17702;47.590;7.666;2023-02-15T12:00:31;12.70;60.40
31038;DHT22;17702;47.590;7.666;2023-02-15T12:03:02;12.70;61.50
31038;DHT22;17702;47.590;7.666;2023-02-15T12:05:30;12.90;61.20
31038;DHT22;17702;47.590;7.666;2023-02-15T12:08:00;12.90;62.70
31038;DHT22;17702;47.590;7.666;2023-02-15T12:10:30;13.00;60.70
31038;DHT22;17702;47.590;7.666;2023-02-15T12:13:15;13.10;59.90
31038;DHT22;17702;47.590;7.666;2023-02-15T12:15:42;13.20;60.40
31038;DHT22;17702;47.590;7.666;2023-02-15T12:18:31;13.40;60.00
31038;DHT22;17702;47.590;7.666;2023-02-15T12:20:59;13.60;60.10
31038;DHT22;17702;47.590;7.666;2023-02-15T12:23:25;13.80;57.80
31038;DHT22;17702;47.590;7.666;2023-02-15T12:25:53;13.80;58.20
31038;DHT22;17702;47.590;7.666;2023-02-15T12:31:01;14.00;57.70
31038;DHT22;17702;47.590;7.666;2023-02-15T12:36:04;14.40;56.50
31038;DHT22;17702;47.590;7.666;2023-02-15T12:38:34;14.50;56.30
31038;DHT22;17702;47.590;7.666;2023-02-15T12:41:01;14.70;55.70
31038;DHT22;17702;47.590;7.666;2023-02-15T12:43:32;14.80;56.80
31038;DHT22;17702;47.590;7.666;2023-02-15T12:48:39;15.10;54.40
31038;DHT22;17702;47.590;7.666;2023-02-15T12:51:08;15.20;54.70
31038;DHT22;17702;47.590;7.666;2023-02-15T12:53:35;15.30;54.30
31038;DHT22;17702;47.590;7.666;2023-02-15T12:56:05;15.40;53.40
31038;DHT22;17702;47.590;7.666;2023-02-15T12:58:31;15.60;54.00
31038;DHT22;17702;47.590;7.666;2023-02-15T13:01:16;15.70;52.90
31038;DHT22;17702;47.590;7.666;2023-02-15T13:06:20;16.20;52.50
31038;DHT22;17702;47.590;7.666;2023-02-15T13:08:48;16.50;51.70
31038;DHT22;17702;47.590;7.666;2023-02-15T13:11:15;16.60;51.40
31038;DHT22;17702;47.590;7.666;2023-02-15T13:13:55;16.90;51.20
31038;DHT22;17702;47.590;7.666;2023-02-15T13:18:53;17.20;50.10
31038;DHT22;17702;47.590;7.666;2023-02-15T13:21:20;17.40;48.80
31038;DHT22;17702;47.590;7.666;2023-02-15T13:23:57;17.60;49.20
31038;DHT22;17702;47.590;7.666;2023-02-15T13:26:25;17.70;48.80
31038;DHT22;17702;47.590;7.666;2023-02-15T13:28:52;17.80;47.10
31038;DHT22;17702;47.590;7.666;2023-02-15T13:31:19;17.80;47.80
31038;DHT22;17702;47.590;7.666;2023-02-15T13:44:29;18.10;46.30
31038;DHT22;17702;47.590;7.666;2023-02-15T13:47:21;18.20;46.70
31038;DHT22;17702;47.590;7.666;2023-02-15T13:52:20;18.30;46.70
31038;DHT22;17702;47.590;7.666;2023-02-15T14:02:55;18.40;45.50
31038;DHT22;17702;47.590;7.666;2023-02-15T14:08:09;18.20;45.40
31038;DHT22;17702;47.590;7.666;2023-02-15T14:10:57;18.10;45.20
31038;DHT22;17702;47.590;7.666;2023-02-15T14:16:10;17.70;47.00
31038;DHT22;17702;47.590;7.666;2023-02-15T14:29:20;16.90;49.20
31038;DHT22;17702;47.590;7.666;2023-02-15T14:31:52;16.80;49.20
31038;DHT22;17702;47.590;7.666;2023-02-15T14:34:27;16.70;49.00
31038;DHT22;17702;47.590;7.666;2023-02-15T14:36:55;16.70;49.10
31038;DHT22;17702;47.590;7.666;2023-02-15T14:42:25;16.60;50.00
31038;DHT22;17702;47.590;7.666;2023-02-15T14:45:05;16.40;49.50
31038;DHT22;17702;47.590;7.666;2023-02-15T14:47:33;16.30;49.00
31038;DHT22;17702;47.590;7.666;2023-02-15T14:49:59;16.20;50.30
31038;DHT22;17702;47.590;7.666;2023-02-15T14:52:24;16.20;49.30
31038;DHT22;17702;47.590;7.666;2023-02-15T14:59:43;16.10;50.10
31038;DHT22;17702;47.590;7.666;2023-02-15T15:02:12;16.00;50.00
31038;DHT22;17702;47.590;7.666;2023-02-15T15:09:33;15.90;49.90
31038;DHT22;17702;47.590;7.666;2023-02-15T15:14:43;15.80;49.80
31038;DHT22;17702;47.590;7.666;2023-02-15T15:17:10;15.60;49.50
31038;DHT22;17702;47.590;7.666;2023-02-15T15:22:17;15.40;50.10
31038;DHT22;17702;47.590;7.666;2023-02-15T15:29:53;15.10;50.60
31038;DHT22;17702;47.590;7.666;2023-02-15T15:32:19;15.00;51.00
31038;DHT22;17702;47.590;7.666;2023-02-15T15:35:03;14.90;50.90
31038;DHT22;17702;47.590;7.666;2023-02-15T15:37:42;14.80;51.40
31038;DHT22;17702;47.590;7.666;2023-02-15T15:48:20;14.50;53.00
31038;DHT22;17702;47.590;7.666;2023-02-15T15:50:47;14.40;53.90
31038;DHT22;17702;47.590;7.666;2023-02-15T15:53:21;14.30;54.30
31038;DHT22;17702;47.590;7.666;2023-02-15T15:55:47;14.20;54.20
31038;DHT22;17702;47.590;7.666;2023-02-15T15:58:14;14.10;55.90
31038;DHT22;17702;47.590;7.666;2023-02-15T16:03:14;13.90;53.30
31038;DHT22;17702;47.590;7.666;2023-02-15T16:05:39;13.80;53.40
31038;DHT22;17702;47.590;7.666;2023-02-15T16:08:05;13.70;53.40
31038;DHT22;17702;47.590;7.666;2023-02-15T16:10:30;13.60;54.00
31038;DHT22;17702;47.590;7.666;2023-02-15T16:12:57;13.50;54.40
31038;DHT22;17702;47.590;7.666;2023-02-15T16:16:05;13.50;57.00
31038;DHT22;17702;47.590;7.666;2023-02-15T16:18:17;13.30;58.60
31038;DHT22;17702;47.590;7.666;2023-02-15T16:21:17;13.10;58.60
31038;DHT22;17702;47.590;7.666;2023-02-15T16:28:29;12.80;57.00
31038;DHT22;17702;47.590;7.666;2023-02-15T16:31:07;12.70;56.20
31038;DHT22;17702;47.590;7.666;2023-02-15T16:33:37;12.70;56.40
31038;DHT22;17702;47.590;7.666;2023-02-15T16:36:03;12.50;57.70
31038;DHT22;17702;47.590;7.666;2023-02-15T16:41:07;12.30;60.20
31038;DHT22;17702;47.590;7.666;2023-02-15T16:43:33;12.10;60.90
31038;DHT22;17702;47.590;7.666;2023-02-15T16:46:03;11.80;61.70
31038;DHT22;17702;47.590;7.666;2023-02-15T16:48:29;11.60;60.40
31038;DHT22;17702;47.590;7.666;2023-02-15T16:50:55;11.60;61.50
31038;DHT22;17702;47.590;7.666;2023-02-15T16:53:30;11.40;62.50
31038;DHT22;17702;47.590;7.666;2023-02-15T16:56:02;11.20;63.00
31038;DHT22;17702;47.590;7.666;2023-02-15T16:58:36;11.10;63.50
31038;DHT22;17702;47.590;7.666;2023-02-15T17:01:03;11.00;62.60
31038;DHT22;17702;47.590;7.666;2023-02-15T17:03:31;11.10;61.20
31038;DHT22;17702;47.590;7.666;2023-02-15T17:05:59;11.10;60.00
31038;DHT22;17702;47.590;7.666;2023-02-15T17:08:33;11.20;60.00
31038;DHT22;17702;47.590;7.666;2023-02-15T17:13:25;11.20;58.30
31038;DHT22;17702;47.590;7.666;2023-02-15T17:18:26;11.10;60.20
31038;DHT22;17702;47.590;7.666;2023-02-15T17:20:53;11.10;59.90
31038;DHT22;17702;47.590;7.666;2023-02-15T17:25:44;11.00;61.70
31038;DHT22;17702;47.590;7.666;2023-02-15T17:28:20;10.80;62.60
31038;DHT22;17702;47.590;7.666;2023-02-15T17:30:46;10.70;62.30
31038;DHT22;17702;47.590;7.666;2023-02-15T17:33:26;10.50;63.60
31038;DHT22;17702;47.590;7.666;2023-02-15T17:36:07;10.40;63.60
31038;DHT22;17702;47.590;7.666;2023-02-15T17:38:36;10.20;64.90
31038;DHT22;17702;47.590;7.666;2023-02-15T17:41:02;9.90;66.20
31038;DHT22;17702;47.590;7.666;2023-02-15T17:43:27;9.50;68.00
31038;DHT22;17702;47.590;7.666;2023-02-15T17:45:53;9.40;68.80
31038;DHT22;17702;47.590;7.666;2023-02-15T17:51:00;9.10;70.70
31038;DHT22;17702;47.590;7.666;2023-02-15T17:53:25;8.90;71.70
31038;DHT22;17702;47.590;7.666;2023-02-15T17:55:51;8.80;72.70
31038;DHT22;17702;47.590;7.666;2023-02-15T17:58:17;8.90;73.00
31038;DHT22;17702;47.590;7.666;2023-02-15T18:00:47;8.80;73.50
31038;DHT22;17702;47.590;7.666;2023-02-15T18:03:42;8.80;74.50
31038;DHT22;17702;47.590;7.666;2023-02-15T18:06:26;8.60;74.90
31038;DHT22;17702;47.590;7.666;2023-02-15T18:09:12;8.40;75.80
31038;DHT22;17702;47.590;7.666;2023-02-15T18:11:56;8.30;76.90
31038;DHT22;17702;47.590;7.666;2023-02-15T18:14:22;8.40;76.90
31038;DHT22;17702;47.590;7.666;2023-02-15T18:16:47;8.40;77.30
31038;DHT22;17702;47.590;7.666;2023-02-15T18:19:17;8.20;78.20
31038;DHT22;17702;47.590;7.666;2023-02-15T18:21:43;8.10;80.70
31038;DHT22;17702;47.590;7.666;2023-02-15T18:24:19;8.00;81.00
31038;DHT22;17702;47.590;7.666;2023-02-15T18:26:45;8.00;81.20
31038;DHT22;17702;47.590;7.666;2023-02-15T18:29:10;7.80;82.70
31038;DHT22;17702;47.590;7.666;2023-02-15T18:31:36;7.90;83.90
31038;DHT22;17702;47.590;7.666;2023-02-15T18:34:02;7.90;84.30
31038;DHT22;17702;47.590;7.666;2023-02-15T18:36:28;7.80;85.50
31038;DHT22;17702;47.590;7.666;2023-02-15T18:38:54;7.80;85.80
31038;DHT22;17702;47.590;7.666;2023-02-15T18:41:21;7.70;87.10
31038;DHT22;17702;47.590;7.666;2023-02-15T18:43:46;7.70;88.00
31038;DHT22;17702;47.590;7.666;2023-02-15T18:46:13;7.70;88.00
31038;DHT22;17702;47.590;7.666;2023-02-15T18:48:39;7.70;87.90
31038;DHT22;17702;47.590;7.666;2023-02-15T18:51:05;7.60;88.70
31038;DHT22;17702;47.590;7.666;2023-02-15T18:53:34;7.70;90.30
31038;DHT22;17702;47.590;7.666;2023-02-15T18:55:59;7.70;90.10
31038;DHT22;17702;47.590;7.666;2023-02-15T18:58:25;7.60;90.10
31038;DHT22;17702;47.590;7.666;2023-02-15T19:00:52;7.60;91.00
31038;DHT22;17702;47.590;7.666;2023-02-15T19:03:19;7.60;90.60
31038;DHT22;17702;47.590;7.666;2023-02-15T19:05:45;7.40;91.00
31038;DHT22;17702;47.590;7.666;2023-02-15T19:08:15;7.40;91.50
31038;DHT22;17702;47.590;7.666;2023-02-15T19:10:41;7.40;91.70
31038;DHT22;17702;47.590;7.666;2023-02-15T19:13:10;7.40;91.90
31038;DHT22;17702;47.590;7.666;2023-02-15T19:15:35;7.20;91.30
31038;DHT22;17702;47.590;7.666;2023-02-15T19:18:01;7.30;92.00